Time;durP1;ratioP1;P1;durP2;ratioP2;P2;SDS_P1;SDS_P2;PMS_P1;PMS_P2;Temp;Humidity;BMP_temperature;BMP_pressure;BME280_temperature;BME280_humidity;BME280_pressure;Samples;Min_cycle;Max_cycle;Signal;HPM_P1;HPM_P2
2022/06/09 00:00:24;;;;;;;;;36.67;32.33;;;;;19.25;100.00;98743.22;6282933;20;3597120;-60
2022/06/09 00:03:00;;;;;;;;;34.00;32.00;;;;;19.27;100.00;98749.31;6284522;20;3565885;-60
2022/06/09 00:05:31;;;;;;;;;31.33;30.33;;;;;19.38;100.00;98750.81;6280953;20;3583657;-60
2022/06/09 00:08:05;;;;;;;;;39.50;34.50;;;;;19.26;100.00;98745.75;6283506;20;3459617;-60
2022/06/09 00:10:43;;;;;;;;;30.67;28.67;;;;;18.65;100.00;98747.97;6310605;20;3587741;-59
2022/06/09 00:13:12;;;;;;;;;31.67;27.33;;;;;18.23;100.00;98733.66;6283241;20;3599584;-60
2022/06/09 00:15:41;;;;;;;;;34.00;32.33;;;;;18.25;100.00;98734.34;6283982;20;3589987;-61
2022/06/09 00:18:10;;;;;;;;;30.00;27.67;;;;;18.32;100.00;98730.78;6283034;20;3608596;-61
2022/06/09 00:20:39;;;;;;;;;30.00;30.00;;;;;18.70;100.00;98728.44;6281516;20;3596133;-61
2022/06/09 00:23:08;;;;;;;;;35.33;29.67;;;;;18.49;100.00;98731.66;6283119;20;3591889;-61
2022/06/09 00:25:37;;;;;;;;;29.00;26.67;;;;;18.47;100.00;98727.41;6281147;20;3585646;-61
2022/06/09 00:28:06;;;;;;;;;29.67;28.67;;;;;18.51;100.00;98720.59;6284788;20;3578343;-61
2022/06/09 00:30:35;;;;;;;;;30.00;27.33;;;;;18.48;100.00;98723.66;6283352;20;3602316;-61
2022/06/09 00:33:04;;;;;;;;;32.00;30.00;;;;;18.59;100.00;98718.75;6281282;20;3581471;-61
2022/06/09 00:35:34;;;;;;;;;30.67;27.33;;;;;18.56;100.00;98708.22;6285650;20;3598146;-61
2022/06/09 00:38:03;;;;;;;;;28.33;27.67;;;;;18.67;100.00;98706.16;6283766;20;3599202;-61
2022/06/09 00:40:32;;;;;;;;;27.33;26.33;;;;;19.03;100.00;98707.50;6281255;20;3597114;-61
2022/06/09 00:43:04;;;;;;;;;28.33;27.00;;;;;19.01;100.00;98712.31;6282457;20;3593082;-61
2022/06/09 00:45:46;;;;;;;;;32.67;28.67;;;;;18.72;100.00;98701.94;6285037;20;3607907;-62
2022/06/09 00:48:42;;;;;;;;;29.33;27.67;;;;;19.19;100.00;98711.22;6282274;20;3600268;-61
2022/06/09 00:51:36;;;;;;;;;33.00;29.00;;;;;18.96;100.00;98709.25;6277158;20;3604543;-61
2022/06/09 00:54:39;;;;;;;;;29.67;28.67;;;;;18.89;100.00;98708.22;6282434;20;3598154;-61
2022/06/09 00:57:26;;;;;;;;;28.00;28.00;;;;;18.84;100.00;98708.72;6286801;20;3591938;-61
2022/06/09 01:00:09;;;;;;;;;31.33;30.00;;;;;19.16;100.00;98711.59;6287673;20;3608660;-61
2022/06/09 01:02:39;;;;;;;;;38.00;34.00;;;;;18.97;100.00;98710.09;6287862;20;3596073;-62
2022/06/09 01:05:08;;;;;;;;;34.00;31.33;;;;;18.81;100.00;98711.81;6286749;20;3600266;-61
2022/06/09 01:07:44;;;;;;;;;34.00;31.00;;;;;18.73;100.00;98711.78;6285715;20;3609657;-62
2022/06/09 01:10:14;;;;;;;;;29.33;28.33;;;;;18.96;100.00;98716.56;6285207;20;3566891;-62
2022/06/09 01:12:46;;;;;;;;;30.33;29.67;;;;;18.92;100.00;98710.59;6286969;20;3581521;-62
2022/06/09 01:15:22;;;;;;;;;38.25;30.00;;;;;18.33;100.00;98705.31;6287715;20;4374174;-62
2022/06/09 01:18:32;;;;;;;;;29.67;28.33;;;;;18.48;100.00;98713.63;6316122;20;3579533;-62
2022/06/09 01:21:54;;;;;;;;;32.00;28.67;;;;;18.33;100.00;98715.34;6285617;20;3598382;-59
2022/06/09 01:25:12;;;;;;;;;38.33;32.33;;;;;18.12;100.00;98713.94;6285253;20;3583694;-61
2022/06/09 01:28:04;;;;;;;;;30.67;30.00;;;;;18.48;100.00;98718.22;6286151;20;3588791;-61
2022/06/09 01:30:46;;;;;;;;;38.33;30.00;;;;;18.70;100.00;98711.28;6286505;20;3599276;-61
2022/06/09 01:34:10;;;;;;;;;35.33;32.67;;;;;18.18;100.00;98707.81;6286958;20;3578351;-62
2022/06/09 01:37:07;;;;;;;;;36.00;33.00;;;;;18.57;100.00;98704.47;6282900;20;3590987;-62
2022/06/09 01:39:59;;;;;;;;;35.00;33.67;;;;;18.40;100.00;98708.19;6283913;20;3588856;-62
2022/06/09 01:42:52;;;;;;;;;33.67;32.00;;;;;18.31;100.00;98714.66;6285357;20;3604549;-62
2022/06/09 01:45:36;;;;;;;;;38.33;33.67;;;;;18.25;100.00;98712.63;6287621;20;3606523;-62
2022/06/09 01:48:16;;;;;;;;;33.67;31.67;;;;;18.21;100.00;98712.91;6286984;20;3592940;-62
2022/06/09 01:51:03;;;;;;;;;39.67;34.67;;;;;18.13;100.00;98704.75;6284999;20;3596100;-62
2022/06/09 01:54:06;;;;;;;;;40.00;33.67;;;;;18.52;100.00;98704.13;6285699;20;3602415;-62
2022/06/09 01:57:17;;;;;;;;;31.67;30.33;;;;;18.34;100.00;98706.16;6282611;20;3573144;-62
2022/06/09 02:00:04;;;;;;;;;43.67;36.67;;;;;18.04;100.00;98700.34;6280260;20;3595177;-62
2022/06/09 02:03:03;;;;;;;;;42.67;35.00;;;;;18.09;100.00;98697.09;6285220;20;3605434;-62
2022/06/09 02:05:44;;;;;;;;;42.67;36.33;;;;;18.07;100.00;98701.88;6285094;20;3590886;-62
2022/06/09 02:08:20;;;;;;;;;42.67;37.00;;;;;18.17;100.00;98703.44;6284055;20;3575322;-62
2022/06/09 02:11:04;;;;;;;;;44.75;36.00;;;;;17.88;100.00;98708.47;6282874;20;3597708;-62
2022/06/09 02:13:46;;;;;;;;;31.67;31.33;;;;;17.85;100.00;98706.03;6309422;20;2835766;-62
2022/06/09 02:16:21;;;;;;;;;38.33;34.00;;;;;18.07;100.00;98710.88;6313536;20;3588443;-62
2022/06/09 02:18:56;;;;;;;;;37.33;33.33;;;;;17.95;100.00;98717.63;6277887;20;2847271;-62
2022/06/09 02:21:35;;;;;;;;;38.33;35.33;;;;;17.83;100.00;98713.53;6312023;20;3587761;-61
2022/06/09 02:24:05;;;;;;;;;37.00;33.00;;;;;18.07;100.00;98710.03;6280329;20;2844116;-62
2022/06/09 02:26:35;;;;;;;;;42.67;35.67;;;;;17.60;100.00;98707.81;6315846;20;3597100;-62
2022/06/09 02:29:04;;;;;;;;;35.00;33.00;;;;;18.02;100.00;98707.81;6285498;20;3576362;-62
2022/06/09 02:31:32;;;;;;;;;41.00;35.00;;;;;17.77;100.00;98721.28;6286598;20;3604576;-62
2022/06/09 02:34:02;;;;;;;;;38.50;35.00;;;;;17.67;100.00;98725.16;6282254;20;2844288;-60
2022/06/09 02:36:30;;;;;;;;;45.33;36.00;;;;;17.78;100.00;98727.56;6287884;20;3594046;-58
2022/06/09 02:38:59;;;;;;;;;39.50;33.50;;;;;17.56;100.00;98720.81;6284336;20;2836735;-58
2022/06/09 02:41:28;;;;;;;;;38.00;34.00;;;;;17.44;100.00;98722.16;6285804;20;3589903;-58
2022/06/09 02:43:57;;;;;;;;;36.00;33.00;;;;;17.23;100.00;98728.81;6286518;20;3579430;-58
2022/06/09 02:46:26;;;;;;;;;41.67;35.33;;;;;17.27;100.00;98719.34;6281923;20;3603483;-57
2022/06/09 02:48:56;;;;;;;;;37.00;32.33;;;;;17.30;100.00;98715.47;6315889;20;3580548;-58
2022/06/09 02:51:33;;;;;;;;;39.33;32.00;;;;;17.40;100.00;98715.34;6282169;20;2826326;-57
2022/06/09 02:54:10;;;;;;;;;38.00;33.33;;;;;17.25;100.00;98718.66;6314031;20;3604443;-59
2022/06/09 02:56:45;;;;;;;;;42.67;37.00;;;;;17.41;100.00;98719.75;6285232;20;3587879;-52
2022/06/09 02:59:14;;;;;;;;;37.67;33.33;;;;;17.47;100.00;98719.09;6285779;20;3586735;-49
2022/06/09 03:01:43;;;;;;;;;37.67;33.00;;;;;17.32;100.00;98719.72;6284726;20;3608566;-58
2022/06/09 03:04:12;;;;;;;;;33.67;31.00;;;;;17.19;100.00;98722.00;6285585;20;3601301;-57
2022/06/09 03:06:41;;;;;;;;;36.33;33.00;;;;;17.09;100.00;98721.28;6286265;20;3587930;-60
2022/06/09 03:09:10;;;;;;;;;32.67;31.67;;;;;17.28;100.00;98721.03;6284809;20;3608691;-60
2022/06/09 03:11:38;;;;;;;;;38.67;32.00;;;;;17.24;100.00;98733.22;6284796;20;3576334;-59
2022/06/09 03:14:10;;;;;;;;;41.00;36.33;;;;;17.18;100.00;98719.47;6286469;20;3612793;-60
2022/06/09 03:16:39;;;;;;;;;33.33;31.00;;;;;17.15;100.00;98731.47;6285137;20;3592995;-59
2022/06/09 03:19:07;;;;;;;;;30.00;30.00;;;;;17.23;100.00;98733.41;6283786;20;3587791;-60
2022/06/09 03:21:36;;;;;;;;;41.00;35.00;;;;;17.57;100.00;98727.97;6283514;20;3594002;-60
2022/06/09 03:24:06;;;;;;;;;34.67;31.67;;;;;17.73;100.00;98733.47;6284428;20;3600618;-60
2022/06/09 03:26:34;;;;;;;;;35.33;33.00;;;;;17.63;100.00;98724.59;6284803;20;3601310;-61
2022/06/09 03:29:03;;;;;;;;;35.00;30.67;;;;;17.74;100.00;98720.75;6285119;20;3592150;-61
2022/06/09 03:31:33;;;;;;;;;30.00;29.00;;;;;17.17;100.00;98724.03;6282111;20;2848416;-61
2022/06/09 03:34:02;;;;;;;;;40.67;33.00;;;;;17.71;100.00;98730.06;6316980;20;3607570;-61
2022/06/09 03:36:31;;;;;;;;;33.00;32.00;;;;;17.51;100.00;98732.19;6285169;20;3598218;-61
2022/06/09 03:39:01;;;;;;;;;40.67;34.00;;;;;17.63;100.00;98730.03;6285903;20;3586905;-61
2022/06/09 03:41:30;;;;;;;;;45.33;34.00;;;;;17.50;100.00;98727.75;6280406;20;3620167;-61
2022/06/09 03:44:05;;;;;;;;;40.33;36.00;;;;;17.31;100.00;98734.28;6317255;20;3587757;-60
2022/06/09 03:46:35;;;;;;;;;43.00;36.00;;;;;17.18;100.00;98735.72;6282458;20;3586781;-61
2022/06/09 03:49:05;;;;;;;;;39.00;35.00;;;;;17.23;100.00;98736.09;6279341;20;2847206;-61
2022/06/09 03:51:37;;;;;;;;;33.67;32.67;;;;;17.31;100.00;98739.72;6314483;20;3577333;-61
2022/06/09 03:54:06;;;;;;;;;33.50;32.00;;;;;17.36;100.00;98743.81;6282206;20;2830453;-61
2022/06/09 03:56:35;;;;;;;;;41.33;36.00;;;;;17.45;100.00;98731.97;6287779;20;3584607;-61
2022/06/09 03:59:04;;;;;;;;;35.33;32.00;;;;;17.52;100.00;98730.31;6283418;20;3582531;-56
2022/06/09 04:01:33;;;;;;;;;38.67;34.00;;;;;17.72;100.00;98733.63;6281748;20;3599221;-58
2022/06/09 04:04:02;;;;;;;;;32.00;31.67;;;;;17.64;100.00;98739.91;6273296;20;3580492;-56
2022/06/09 04:06:31;;;;;;;;;38.00;33.67;;;;;17.69;100.00;98740.25;6285788;20;3603490;-56
2022/06/09 04:09:00;;;;;;;;;38.67;33.00;;;;;17.96;100.00;98736.47;6278693;20;3586896;-55
2022/06/09 04:11:30;;;;;;;;;35.00;33.00;;;;;18.31;100.00;98731.81;6282070;20;3588796;-57
2022/06/09 04:14:00;;;;;;;;;38.33;34.33;;;;;18.46;100.00;98737.44;6285008;20;3601269;-57
2022/06/09 04:16:38;;;;;;;;;31.33;30.00;;;;;18.76;100.00;98732.38;6283618;20;3585667;-61
2022/06/09 04:19:13;;;;;;;;;41.00;35.33;;;;;18.48;100.00;98731.81;6284860;20;3610622;-61
2022/06/09 04:21:43;;;;;;;;;33.00;30.33;;;;;18.75;100.00;98731.53;6280992;20;3576299;-61
2022/06/09 04:24:13;;;;;;;;;36.00;33.33;;;;;18.97;100.00;98724.53;6278591;20;3578443;-61
2022/06/09 04:26:43;;;;;;;;;40.00;33.00;;;;;18.55;100.00;98730.97;6284241;20;3608627;-62
2022/06/09 04:29:14;;;;;;;;;36.00;33.00;;;;;18.86;100.00;98724.91;6280227;20;2847344;-61
2022/06/09 04:31:45;;;;;;;;;36.67;33.00;;;;;19.16;100.00;98736.06;6316780;20;3597262;-61
2022/06/09 04:34:14;;;;;;;;;31.67;30.33;;;;;19.04;100.00;98736.44;6289373;20;3587768;-61
2022/06/09 04:36:43;;;;;;;;;41.33;34.67;;;;;19.21;100.00;98744.56;6287823;20;3583107;-61
2022/06/09 04:39:12;;;;;;;;;31.00;30.00;;;;;19.43;100.00;98743.84;6285943;20;3587841;-61
2022/06/09 04:41:41;;;;;;;;;36.33;31.00;;;;;19.44;100.00;98747.41;6285303;20;3606572;-61
2022/06/09 04:44:11;;;;;;;;;30.67;29.33;;;;;19.63;100.00;98746.16;6317172;20;3581639;-61
2022/06/09 04:46:40;;;;;;;;;35.33;31.00;;;;;20.03;100.00;98747.88;6284235;20;3591965;-61
2022/06/09 04:49:09;;;;;;;;;34.00;32.67;;;;;20.01;100.00;98747.25;6324344;20;3598139;-57
2022/06/09 04:51:38;;;;;;;;;31.33;30.33;;;;;19.86;100.00;98754.47;6289364;20;3588789;-62
2022/06/09 04:54:07;;;;;;;;;41.50;34.50;;;;;19.77;100.00;98748.16;6290702;20;2841906;-58
2022/06/09 04:56:36;;;;;;;;;44.00;37.67;;;;;19.73;100.00;98753.13;6290019;20;3594085;-58
2022/06/09 04:59:05;;;;;;;;;39.67;34.00;;;;;19.91;100.00;98754.78;6293627;20;3580432;-58
2022/06/09 05:01:34;;;;;;;;;44.00;35.67;;;;;20.03;100.00;98763.41;6286594;20;3589855;-59
2022/06/09 05:04:04;;;;;;;;;37.00;33.00;;;;;20.04;100.00;98754.22;6292190;20;3591937;-59
2022/06/09 05:06:32;;;;;;;;;37.00;33.00;;;;;20.08;100.00;98756.38;6289760;20;2836744;-61
2022/06/09 05:09:01;;;;;;;;;31.67;31.00;;;;;20.51;99.64;98761.41;6286290;20;3583971;-62
2022/06/09 05:11:31;;;;;;;;;35.67;31.67;;;;;20.42;100.00;98757.88;6285624;20;2848301;-61
2022/06/09 05:14:00;;;;;;;;;32.00;30.00;;;;;20.45;100.00;98762.13;6323105;20;3587973;-62
2022/06/09 05:16:28;;;;;;;;;33.00;30.67;;;;;21.10;96.84;98761.66;6290323;20;3583577;-59
2022/06/09 05:18:57;;;;;;;;;34.33;30.33;;;;;20.88;97.91;98774.31;6290854;20;3587723;-59
2022/06/09 05:21:31;;;;;;;;;29.33;28.67;;;;;20.70;97.99;98768.31;6290046;20;3578406;-59
2022/06/09 05:24:01;;;;;;;;;36.67;32.00;;;;;21.13;97.57;98788.59;6288455;20;2851477;-62
2022/06/09 05:26:30;;;;;;;;;30.00;30.00;;;;;21.13;96.61;98782.28;6321002;20;3590857;-62
2022/06/09 05:28:59;;;;;;;;;27.00;27.00;;;;;21.07;97.28;98783.88;6290791;20;3597121;-62
2022/06/09 05:31:28;;;;;;;;;30.67;30.00;;;;;21.08;98.18;98779.25;6289797;20;3585698;-62
2022/06/09 05:33:57;;;;;;;;;42.00;35.00;;;;;21.16;97.29;98790.09;6292913;20;3589833;-62
2022/06/09 05:36:26;;;;;;;;;34.33;30.00;;;;;21.17;97.18;98803.56;6290577;20;3583548;-61
2022/06/09 05:47:19;;;;;;;;;32.00;30.00;;;;;21.27;96.38;98803.28;6286578;20;3583784;-61
2022/06/09 05:49:53;;;;;;;;;34.00;31.67;;;;;21.03;98.52;98804.34;6291400;20;3598208;-61
2022/06/09 05:52:28;;;;;;;;;51.33;42.33;;;;;21.01;99.63;98804.56;6287478;20;3597152;-61
2022/06/09 05:54:57;;;;;;;;;30.67;29.33;;;;;21.45;96.35;98803.00;6291382;20;3597082;-61
2022/06/09 05:57:27;;;;;;;;;32.67;30.00;;;;;21.20;97.01;98805.94;6288570;20;3598177;-61
2022/06/09 05:59:56;;;;;;;;;32.67;30.67;;;;;21.27;96.49;98806.03;6289759;20;3594064;-61
2022/06/09 06:02:27;;;;;;;;;38.00;33.33;;;;;21.01;98.58;98812.75;6291418;20;3584603;-61
2022/06/09 06:04:56;;;;;;;;;31.00;30.00;;;;;21.18;97.61;98815.34;6287029;20;3587114;-61
2022/06/09 06:07:24;;;;;;;;;33.00;31.67;;;;;21.09;96.83;98813.69;6291786;20;3596117;-61
2022/06/09 06:09:53;;;;;;;;;33.00;30.00;;;;;21.35;94.58;98818.75;6288664;20;3587757;-62
2022/06/09 06:12:22;;;;;;;;;35.67;31.00;;;;;21.27;95.22;98812.34;6291556;20;3587746;-61
2022/06/09 06:14:50;;;;;;;;;30.00;30.00;;;;;21.58;94.92;98814.13;6288922;20;3590843;-61
2022/06/09 06:17:19;;;;;;;;;33.67;32.00;;;;;21.79;93.15;98820.75;6289236;20;3591886;-61
2022/06/09 06:19:48;;;;;;;;;31.33;29.33;;;;;21.55;93.45;98817.22;6287021;20;3584597;-62
2022/06/09 06:22:16;;;;;;;;;31.33;29.67;;;;;21.88;92.73;98809.53;6290942;20;3581485;-61
2022/06/09 06:24:45;;;;;;;;;31.67;30.00;;;;;21.82;92.90;98812.16;6288521;20;3586732;-61
2022/06/09 06:27:14;;;;;;;;;35.00;25.50;;;;;21.81;91.99;98818.69;6292352;20;3625345;-61
2022/06/09 06:30:05;;;;;;;;;34.00;30.00;;;;;22.10;90.77;98812.34;6317101;20;3570052;-62
2022/06/09 06:32:35;;;;;;;;;34.00;31.00;;;;;22.10;91.31;98818.66;6318714;20;3587778;-61
2022/06/09 06:35:05;;;;;;;;;28.00;28.00;;;;;21.95;89.99;98809.63;6319983;20;3603411;-61
2022/06/09 06:37:33;;;;;;;;;30.00;28.67;;;;;21.97;90.70;98806.69;6290919;20;3582577;-61
2022/06/09 06:40:03;;;;;;;;;33.00;30.00;;;;;21.85;91.93;98814.50;6287414;20;3582620;-61
2022/06/09 06:42:32;;;;;;;;;35.00;30.67;;;;;22.06;91.30;98814.59;6287731;20;3593145;-61
2022/06/09 06:45:02;;;;;;;;;29.33;29.33;;;;;22.22;90.47;98820.94;6314743;20;3606526;-61
2022/06/09 06:47:32;;;;;;;;;30.00;30.00;;;;;22.31;89.90;98806.97;6315566;20;3574204;-61
2022/06/09 06:50:08;;;;;;;;;26.00;25.33;;;;;22.07;90.82;98823.66;6318858;20;3600342;-61
2022/06/09 06:52:37;;;;;;;;;35.33;29.67;;;;;21.98;91.00;98824.78;6288898;20;3603827;-61
2022/06/09 06:55:12;;;;;;;;;28.00;28.00;;;;;21.97;89.93;98818.47;6286412;20;3600237;-61
2022/06/09 06:57:41;;;;;;;;;26.00;25.00;;;;;21.97;90.48;98817.63;6286458;20;3597087;-61
2022/06/09 07:00:17;;;;;;;;;28.00;24.00;;;;;22.13;87.31;98823.75;6288545;20;3579430;-61
2022/06/09 07:02:48;;;;;;;;;30.00;29.00;;;;;21.95;89.88;98815.09;6284581;20;3590958;-61
2022/06/09 07:05:38;;;;;;;;;33.00;30.67;;;;;21.93;89.23;98822.63;6285530;20;3597087;-62
2022/06/09 07:08:08;;;;;;;;;32.67;30.00;;;;;22.35;87.52;98813.78;6287856;20;3574311;-61
2022/06/09 07:10:37;;;;;;;;;33.67;30.67;;;;;22.32;87.81;98816.00;6289411;20;3585627;-61
2022/06/09 07:13:05;;;;;;;;;28.67;28.67;;;;;22.28;87.60;98820.19;6289982;20;3600231;-62
2022/06/09 07:15:35;;;;;;;;;28.67;27.00;;;;;22.24;88.43;98816.13;6287746;20;3602351;-60
2022/06/09 07:18:04;;;;;;;;;20.33;20.00;;;;;22.39;85.79;98822.44;6290954;20;3565896;-61
2022/06/09 07:20:33;;;;;;;;;22.67;19.33;;;;;22.78;83.30;98829.41;6286019;20;3572163;-62
2022/06/09 07:23:02;;;;;;;;;22.67;20.67;;;;;22.67;83.25;98828.03;6288111;20;3575323;-61
2022/06/09 07:25:31;;;;;;;;;20.50;18.00;;;;;22.43;83.84;98829.19;6283116;20;2825263;-63
2022/06/09 07:28:00;;;;;;;;;25.67;24.33;;;;;22.26;86.07;98834.03;6291013;20;3589799;-61
2022/06/09 07:30:29;;;;;;;;;24.00;24.00;;;;;22.26;87.19;98834.03;6288453;20;3580418;-62
2022/06/09 07:32:58;;;;;;;;;25.33;23.00;;;;;21.97;87.80;98823.94;6289256;20;3583538;-61
2022/06/09 07:35:30;;;;;;;;;30.00;27.00;;;;;22.42;86.51;98830.25;6289170;20;3600264;-61
2022/06/09 07:37:59;;;;;;;;;27.00;23.67;;;;;22.55;85.34;98826.81;6287294;20;3591894;-61
2022/06/09 07:40:28;;;;;;;;;24.33;22.00;;;;;22.72;85.11;98827.41;6285532;20;3569222;-61
2022/06/09 07:42:57;;;;;;;;;26.00;25.67;;;;;22.95;83.71;98821.78;6288127;20;3589811;-62
2022/06/09 07:45:25;;;;;;;;;24.00;22.67;;;;;23.27;82.73;98831.38;6288812;20;3577417;-61
2022/06/09 07:47:54;;;;;;;;;26.67;25.33;;;;;23.21;84.10;98832.16;6285783;20;3596100;-61
2022/06/09 07:50:23;;;;;;;;;24.33;23.67;;;;;23.61;82.55;98827.00;6286665;20;3596183;-62
2022/06/09 07:52:52;;;;;;;;;27.00;25.00;;;;;24.15;78.99;98840.06;6282246;20;3591885;-61
2022/06/09 07:55:22;;;;;;;;;20.33;20.33;;;;;23.90;78.32;98842.44;6285599;20;3583596;-59
2022/06/09 07:57:53;;;;;;;;;22.33;22.33;;;;;24.01;77.36;98843.75;6288413;20;3574199;-62
2022/06/09 08:00:24;;;;;;;;;17.67;16.67;;;;;24.35;74.97;98848.38;6286721;20;3565870;-61
2022/06/09 08:02:54;;;;;;;;;19.00;19.00;;;;;25.37;71.65;98838.34;6284881;20;3583599;-61
2022/06/09 08:05:26;;;;;;;;;16.33;16.33;;;;;26.08;69.48;98840.41;6289031;20;3560772;-61
2022/06/09 08:07:55;;;;;;;;;20.00;20.00;;;;;26.17;68.95;98844.66;6287440;20;3581568;-62
2022/06/09 08:10:28;;;;;;;;;15.67;15.67;;;;;25.50;70.33;98841.09;6290318;20;3555453;-62
2022/06/09 08:13:03;;;;;;;;;23.67;21.00;;;;;24.52;74.17;98835.19;6283516;20;3574301;-62
2022/06/09 08:15:35;;;;;;;;;17.33;17.33;;;;;24.28;75.23;98831.06;6284559;20;2837773;-62
2022/06/09 08:18:06;;;;;;;;;20.00;20.00;;;;;24.47;74.09;98827.56;6318844;20;3574270;-61
2022/06/09 08:20:40;;;;;;;;;18.00;18.00;;;;;24.56;75.54;98830.13;6284206;20;2835724;-62
2022/06/09 08:23:27;;;;;;;;;14.33;14.33;;;;;24.89;71.22;98830.22;6314542;20;3521047;-61
2022/06/09 08:26:56;;;;;;;;;15.00;14.67;;;;;24.45;72.34;98823.34;6285684;20;3532573;-62
2022/06/09 08:29:26;;;;;;;;;18.33;17.00;;;;;25.64;71.85;98836.44;6316505;20;3561811;-62
2022/06/09 08:31:57;;;;;;;;;20.00;20.00;;;;;25.94;69.67;98828.59;6281989;20;2839857;-62
2022/06/09 08:34:28;;;;;;;;;14.00;14.00;;;;;25.82;70.20;98830.28;6316321;20;2819002;-61
2022/06/09 08:36:56;;;;;;;;;12.67;12.67;;;;;26.95;66.39;98838.16;6285481;20;2483590;-62
2022/06/09 08:39:25;;;;;;;;;12.00;11.00;;;;;26.87;65.92;98833.75;6316499;20;2789974;-62
2022/06/09 08:42:25;;;;;;;;;12.67;12.00;;;;;27.32;64.60;98825.44;6316364;20;2483614;-62
2022/06/09 08:45:05;;;;;;;;;12.00;12.00;;;;;27.24;64.90;98827.63;6313997;20;3536714;-62
2022/06/09 08:47:43;;;;;;;;;12.00;12.00;;;;;26.53;65.12;98820.41;6310831;20;3523182;-62
2022/06/09 08:50:40;;;;;;;;;10.00;10.00;;;;;26.43;65.51;98821.66;6284376;20;3514923;-62
2022/06/09 08:53:46;;;;;;;;;11.67;11.33;;;;;26.19;65.90;98814.13;6312189;20;3517984;-62
2022/06/09 08:56:26;;;;;;;;;12.00;12.00;;;;;26.50;66.22;98814.22;6281085;20;2479442;-62
2022/06/09 08:59:04;;;;;;;;;12.00;12.00;;;;;25.38;69.19;98801.56;6313354;20;3512765;-63
2022/06/09 09:01:47;;;;;;;;;12.00;11.00;;;;;25.69;69.99;98802.81;6315041;20;2485822;-62
2022/06/09 09:04:45;;;;;;;;;11.33;10.33;;;;;25.88;68.17;98807.44;6314393;20;3515903;-62
2022/06/09 09:07:29;;;;;;;;;11.00;11.00;;;;;25.34;68.86;98795.66;6310135;20;3514838;-61
2022/06/09 09:10:48;;;;;;;;;14.50;12.50;;;;;25.87;68.05;98808.50;6280055;20;2483603;-61
2022/06/09 09:13:59;;;;;;;;;19.33;16.67;;;;;27.15;64.43;98802.22;6315407;20;3569062;-62
2022/06/09 09:17:13;;;;;;;;;17.00;16.67;;;;;26.20;67.45;98802.09;6286075;20;3561678;-61
2022/06/09 09:20:04;;;;;;;;;17.67;17.00;;;;;26.05;69.25;98803.19;6287932;20;2835662;-62
2022/06/09 09:23:15;;;;;;;;;15.67;14.33;;;;;27.14;64.15;98795.84;6321730;20;2483698;-62
2022/06/09 09:26:07;;;;;;;;;11.00;11.00;;;;;27.41;63.76;98795.69;6315824;20;3514840;-62
2022/06/09 09:29:01;;;;;;;;;14.00;14.00;;;;;27.67;61.89;98789.06;6288262;20;2483605;-63
2022/06/09 09:32:00;;;;;;;;;16.00;14.00;;;;;27.60;62.88;98793.81;6321414;20;3543986;-62
2022/06/09 09:34:41;;;;;;;;;14.00;14.00;;;;;27.73;62.83;98784.56;6322644;20;3533556;-62
2022/06/09 09:37:43;;;;;;;;;10.33;9.33;;;;;28.21;60.98;98784.69;6287313;20;2776497;-61
2022/06/09 09:40:42;;;;;;;;;17.00;17.00;;;;;27.60;63.86;98784.69;6316355;20;2820320;-61
2022/06/09 09:43:15;;;;;;;;;15.00;14.00;;;;;27.43;63.95;98782.50;6289522;20;3535637;-60
2022/06/09 09:45:52;;;;;;;;;13.00;13.00;;;;;26.35;65.53;98774.28;6319044;20;3528400;-60
2022/06/09 09:48:21;;;;;;;;;15.00;15.00;;;;;26.41;65.81;98779.75;6319216;20;3533576;-60
2022/06/09 09:51:11;;;;;;;;;15.00;15.00;;;;;26.46;67.33;98776.31;6321430;20;3537839;-60
2022/06/09 09:54:08;;;;;;;;;15.67;15.67;;;;;27.32;62.23;98783.25;6317437;20;3544001;-60
2022/06/09 09:56:38;;;;;;;;;21.00;21.00;;;;;27.93;61.92;98771.41;6321863;20;3581674;-61
2022/06/09 09:59:26;;;;;;;;;19.00;17.00;;;;;29.12;59.24;98778.38;6288348;20;3571297;-60
2022/06/09 10:11:00;;;;;;;;;20.86;20.86;;;;;26.77;64.24;98763.69;6339523;20;3576281;-49
2022/06/09 10:13:49;;;;;;;;;20.67;20.67;;;;;28.40;61.40;98768.09;6284342;20;3580516;-46
2022/06/09 10:16:21;;;;;;;;;20.00;19.00;;;;;29.00;58.35;98764.50;6318104;20;3571146;-56
2022/06/09 10:19:06;;;;;;;;;21.00;19.67;;;;;27.60;63.01;98762.63;6284329;20;3579419;-57
2022/06/09 10:22:05;;;;;;;;;24.00;20.00;;;;;28.19;62.42;98763.91;6288805;20;3563877;-48
2022/06/09 10:24:54;;;;;;;;;18.00;16.67;;;;;28.33;60.96;98767.31;6287855;20;3571093;-50
2022/06/09 10:27:35;;;;;;;;;15.00;15.00;;;;;28.63;60.32;98759.09;6289771;20;3539986;-59
2022/06/09 10:30:23;;;;;;;;;17.67;17.67;;;;;27.76;60.47;98754.59;6315394;20;3563859;-46
2022/06/09 10:33:30;;;;;;;;;16.33;16.33;;;;;27.34;63.60;98756.28;6285213;20;3558746;-56
2022/06/09 10:36:29;;;;;;;;;13.00;13.00;;;;;28.21;59.17;98751.56;6286783;20;3530443;-52
2022/06/09 10:39:23;;;;;;;;;17.33;16.00;;;;;28.26;59.42;98758.31;6317111;20;3561708;-48
2022/06/09 10:42:25;;;;;;;;;15.00;14.00;;;;;27.35;59.13;98742.25;6281943;20;2806612;-48
2022/06/09 10:45:36;;;;;;;;;15.00;14.00;;;;;28.54;57.68;98749.44;6286933;20;2805472;-49
2022/06/09 10:57:30;;;;;;;;;15.67;14.33;;;;;28.42;55.52;98730.06;6290671;20;3538168;-48
2022/06/09 11:00:13;;;;;;;;;18.67;14.33;;;;;28.83;55.43;98725.63;6315345;20;2483572;-50
2022/06/09 11:02:51;;;;;;;;;16.33;15.67;;;;;29.10;54.81;98726.94;6317407;20;3551288;-47
2022/06/09 11:06:18;;;;;;;;;12.67;11.33;;;;;28.98;53.97;98722.44;6287887;20;2483742;-59
2022/06/09 11:09:25;;;;;;;;;13.33;12.00;;;;;28.14;56.63;98725.94;6313204;20;3523192;-49
2022/06/09 11:12:50;;;;;;;;;13.00;13.00;;;;;27.31;58.34;98716.25;6286083;20;3533576;-57
2022/06/09 11:15:48;;;;;;;;;11.67;11.67;;;;;27.31;57.47;98712.66;6279849;20;3513763;-56
2022/06/09 11:19:10;;;;;;;;;14.33;13.00;;;;;27.09;57.66;98713.03;6283027;20;3526298;-60
2022/06/09 11:21:58;;;;;;;;;12.33;12.33;;;;;26.71;58.90;98702.09;6285922;20;2483676;-49
2022/06/09 11:24:56;;;;;;;;;14.67;14.67;;;;;26.75;58.11;98697.81;6319040;20;2483710;-53
2022/06/09 11:27:54;;;;;;;;;11.67;11.67;;;;;28.00;56.53;98699.59;6317987;20;3533774;-51
2022/06/09 11:31:06;;;;;;;;;14.00;13.00;;;;;27.47;55.80;98692.75;6316333;20;3536661;-52
2022/06/09 11:34:11;;;;;;;;;14.67;13.00;;;;;27.41;57.17;98684.53;6316886;20;2485691;-53
2022/06/09 11:37:17;;;;;;;;;7.67;7.67;;;;;27.58;58.11;98688.38;6316201;20;2740910;-52
2022/06/09 11:40:29;;;;;;;;;17.67;15.67;;;;;28.14;58.47;98683.69;6314557;20;3556588;-54
2022/06/09 11:43:45;;;;;;;;;19.00;17.00;;;;;28.00;58.52;98685.81;6281518;20;2832049;-50
2022/06/09 11:46:24;;;;;;;;;16.00;16.00;;;;;28.39;56.72;98686.34;6317592;20;3563930;-48
2022/06/09 11:51:42;;;;;;;;;17.00;17.00;;;;;28.61;57.16;98672.88;6312531;20;2833643;-56
2022/06/09 11:54:49;;;;;;;;;16.00;16.00;;;;;28.13;58.07;98671.00;6282726;20;3571050;-60
2022/06/09 11:57:26;;;;;;;;;13.67;13.67;;;;;28.93;55.54;98673.41;6320976;20;3531575;-50
2022/06/09 12:00:19;;;;;;;;;18.00;16.67;;;;;27.75;57.51;98669.31;6313777;20;3565928;-54
2022/06/09 12:03:19;;;;;;;;;16.33;15.33;;;;;28.21;56.70;98676.19;6320475;20;3542974;-60
2022/06/09 12:06:42;;;;;;;;;19.33;18.00;;;;;29.29;55.10;98682.59;6286489;20;3581544;-53
2022/06/09 12:10:00;;;;;;;;;14.33;13.33;;;;;27.57;61.19;98672.94;6283611;20;2492131;-57
2022/06/09 12:12:29;;;;;;;;;18.67;16.67;;;;;28.05;60.03;98676.84;6314378;20;3564865;-57
2022/06/09 12:15:25;;;;;;;;;16.00;15.67;;;;;28.24;58.21;98684.81;6286444;20;3538892;-54
2022/06/09 12:18:08;;;;;;;;;11.67;10.67;;;;;28.37;57.64;98677.44;6315662;20;2491984;-57
2022/06/09 12:20:49;;;;;;;;;16.00;14.33;;;;;27.16;59.96;98677.13;6314356;20;3540504;-56